Time;durP1;ratioP1;P1;durP2;ratioP2;P2;SDS_P1;SDS_P2;PMS_P1;PMS_P2;Temp;Humidity;BMP_temperature;BMP_pressure;BME280_temperature;BME280_humidity;BME280_pressure;Samples;Min_cycle;Max_cycle;Signal;HPM_P1;HPM_P2
2022/04/07 00:00:43;;;;;;;10.48;7.50;;;;;;;10.77;67.15;100369.00;5096440;28;20137;-84
2022/04/07 00:03:09;;;;;;;9.95;7.03;;;;;;;10.78;66.74;100357.28;5095320;28;20020;-82
2022/04/07 00:05:34;;;;;;;11.18;7.60;;;;;;;10.63;66.65;100361.28;5095881;28;20020;-82
2022/04/07 00:07:59;;;;;;;17.17;7.15;;;;;;;10.58;65.48;100344.69;5095822;28;20482;-82
2022/04/07 00:10:25;;;;;;;11.23;6.07;;;;;;;10.59;66.27;100356.28;5096019;28;20109;-82
2022/04/07 00:12:50;;;;;;;7.90;5.50;;;;;;;10.48;65.59;100324.97;5096223;28;20123;-83
2022/04/07 00:15:16;;;;;;;7.93;6.20;;;;;;;10.35;65.47;100314.41;5095197;28;20035;-83
2022/04/07 00:17:41;;;;;;;10.23;6.60;;;;;;;10.64;65.92;100352.22;5095230;28;20036;-82
2022/04/07 00:20:07;;;;;;;9.52;6.57;;;;;;;10.74;65.62;100341.53;5095298;28;20374;-83
2022/04/07 00:22:34;;;;;;;12.25;6.93;;;;;;;10.49;64.67;100272.06;5095607;28;20098;-83
2022/04/07 00:25:00;;;;;;;8.52;6.20;;;;;;;10.55;64.64;100301.09;5094935;28;20032;-82
2022/04/07 00:27:25;;;;;;;8.45;6.43;;;;;;;10.61;64.30;100311.31;5095527;28;20039;-84
2022/04/07 00:29:51;;;;;;;9.57;6.85;;;;;;;10.18;65.25;100242.41;5095592;28;20451;-84
2022/04/07 00:32:16;;;;;;;10.75;6.35;;;;;;;10.25;65.47;100265.09;5095097;28;20121;-82
2022/04/07 00:34:46;;;;;;;9.75;6.38;;;;;;;10.40;65.26;100294.34;5095131;28;20566;-84
2022/04/07 00:37:11;;;;;;;9.93;6.13;;;;;;;10.15;65.71;100258.78;5095312;28;20039;-83
2022/04/07 00:39:37;;;;;;;7.10;5.75;;;;;;;10.19;65.78;100233.38;5095504;28;20032;-84
2022/04/07 00:42:03;;;;;;;8.75;6.40;;;;;;;10.52;64.95;100274.47;5094963;28;20032;-83
2022/04/07 00:44:29;;;;;;;10.10;6.05;;;;;;;10.31;65.00;100251.13;5095211;28;20048;-82
2022/04/07 00:46:55;;;;;;;8.48;5.93;;;;;;;10.50;64.71;100271.91;5095237;28;20098;-82
2022/04/07 00:49:20;;;;;;;11.00;6.03;;;;;;;10.38;65.32;100257.69;5100578;28;20019;-82
2022/04/07 00:51:49;;;;;;;8.10;6.30;;;;;;;10.29;66.14;100236.13;5106096;28;20024;-82
2022/04/07 00:54:16;;;;;;;9.20;6.00;;;;;;;10.31;66.17;100245.75;5105040;28;20031;-83
2022/04/07 00:56:43;;;;;;;10.43;6.72;;;;;;;10.46;65.67;100261.56;5098994;28;20043;-83
2022/04/07 00:59:14;;;;;;;10.18;6.32;;;;;;;10.24;65.19;100214.19;5094873;28;20020;-84
2022/04/07 01:01:39;;;;;;;10.00;5.45;;;;;;;10.31;64.09;100242.22;5096410;28;20020;-83
2022/04/07 01:04:05;;;;;;;7.88;5.88;;;;;;;10.42;64.55;100250.22;5095797;28;20035;-82
2022/04/07 01:06:31;;;;;;;10.13;6.75;;;;;;;10.52;64.61;100251.09;5076357;28;20082;-84
2022/04/07 01:08:57;;;;;;;16.52;5.43;;;;;;;10.36;64.42;100229.25;5094149;28;20421;-83
2022/04/07 01:11:25;;;;;;;9.70;6.78;;;;;;;10.45;64.53;100236.50;5094518;28;20035;-83
2022/04/07 01:13:52;;;;;;;9.05;7.00;;;;;;;10.60;64.64;100227.09;5094895;28;20107;-84
2022/04/07 01:16:19;;;;;;;11.35;5.82;;;;;;;10.62;63.99;100230.50;5094283;28;20027;-83
2022/04/07 01:18:46;;;;;;;8.18;6.10;;;;;;;10.17;66.20;100181.59;5094286;28;20020;-83
2022/04/07 01:21:14;;;;;;;9.02;6.55;;;;;;;10.40;66.16;100209.16;5075706;28;20454;-82
2022/04/07 01:23:41;;;;;;;11.10;6.35;;;;;;;10.31;66.88;100209.97;5094125;28;20474;-84
2022/04/07 01:26:09;;;;;;;8.95;6.65;;;;;;;10.35;67.81;100223.00;5094272;28;20031;-83
2022/04/07 01:28:36;;;;;;;17.73;7.28;;;;;;;10.23;69.21;100212.47;5093996;28;20545;-83
2022/04/07 01:31:01;;;;;;;10.10;7.38;;;;;;;10.26;69.85;100217.56;5094113;28;20094;-83
2022/04/07 01:33:27;;;;;;;12.38;7.80;;;;;;;10.34;69.88;100204.31;5094375;28;20058;-83
2022/04/07 01:35:53;;;;;;;13.02;7.10;;;;;;;10.09;70.72;100189.44;5093998;28;20051;-84
2022/04/07 01:38:19;;;;;;;14.43;7.78;;;;;;;9.73;71.42;100150.47;5094154;28;20390;-83
2022/04/07 01:40:46;;;;;;;15.43;7.55;;;;;;;9.91;71.53;100148.03;5093977;28;20024;-84
2022/04/07 01:43:14;;;;;;;12.40;7.30;;;;;;;10.20;71.34;100185.84;5093992;28;20023;-83
2022/04/07 01:45:40;;;;;;;15.10;8.38;;;;;;;9.76;72.17;100128.72;5093953;28;20109;-82
2022/04/07 01:48:07;;;;;;;14.75;9.35;;;;;;;10.11;72.47;100179.41;5076032;28;20119;-84
2022/04/07 01:50:34;;;;;;;13.63;9.07;;;;;;;9.99;73.36;100177.78;5093732;28;20028;-83
2022/04/07 01:53:01;;;;;;;11.50;8.77;;;;;;;10.06;73.77;100189.69;5095025;28;20020;-84
2022/04/07 01:55:27;;;;;;;14.95;10.40;;;;;;;10.02;73.72;100171.31;5094464;28;20016;-83
2022/04/07 01:57:53;;;;;;;12.13;9.07;;;;;;;10.24;73.79;100171.19;5094781;28;20030;-83
2022/04/07 02:00:19;;;;;;;14.32;9.85;;;;;;;10.03;73.73;100143.47;5096613;28;20020;-83
2022/04/07 02:02:47;;;;;;;15.35;10.30;;;;;;;10.31;73.56;100173.19;5075700;28;20050;-83
2022/04/07 02:05:13;;;;;;;21.10;10.90;;;;;;;10.12;73.31;100143.47;5093656;28;20039;-83
2022/04/07 02:07:42;;;;;;;20.75;10.80;;;;;;;10.44;73.02;100175.66;5093495;28;20024;-82
2022/04/07 02:10:09;;;;;;;18.25;9.85;;;;;;;10.24;73.34;100149.69;5094541;28;20581;-82
2022/04/07 02:12:37;;;;;;;15.68;9.35;;;;;;;10.15;73.73;100131.69;5094161;28;20026;-83
2022/04/07 02:15:04;;;;;;;20.77;10.38;;;;;;;10.33;73.48;100162.31;5099150;28;20486;-85
2022/04/07 02:17:30;;;;;;;13.88;9.63;;;;;;;10.32;74.10;100168.66;5104808;28;20020;-83
2022/04/07 02:19:57;;;;;;;18.55;9.65;;;;;;;10.37;74.00;100172.66;5104609;28;20016;-83
2022/04/07 02:22:23;;;;;;;14.55;10.82;;;;;;;10.52;73.76;100170.44;5100800;28;20020;-83
2022/04/07 02:24:49;;;;;;;13.73;10.05;;;;;;;10.55;73.25;100170.16;5093196;28;20481;-82
2022/04/07 02:27:16;;;;;;;17.63;11.45;;;;;;;10.53;73.25;100171.28;5093568;28;20024;-83
2022/04/07 02:29:42;;;;;;;17.30;9.90;;;;;;;10.57;73.53;100178.97;5093302;28;20446;-83
2022/04/07 02:32:08;;;;;;;14.27;9.50;;;;;;;10.33;73.64;100143.50;5093148;28;20059;-84
2022/04/07 02:34:34;;;;;;;17.45;10.48;;;;;;;10.60;73.90;100170.63;5093882;28;20020;-83
2022/04/07 02:37:00;;;;;;;16.17;9.98;;;;;;;10.67;73.43;100166.38;5093835;28;20024;-84
2022/04/07 02:39:26;;;;;;;16.02;10.43;;;;;;;10.43;74.17;100138.16;5102712;28;20020;-83
2022/04/07 02:41:51;;;;;;;22.27;10.35;;;;;;;10.50;74.71;100167.03;5093803;28;20539;-82
2022/04/07 02:44:18;;;;;;;27.58;12.38;;;;;;;10.47;74.65;100178.06;5094846;28;20111;-83
2022/04/07 02:46:44;;;;;;;22.80;11.75;;;;;;;10.33;75.36;100175.75;5093746;28;20024;-84
2022/04/07 02:49:09;;;;;;;14.65;9.88;;;;;;;10.24;76.34;100176.56;5093557;28;20084;-87
2022/04/07 02:51:35;;;;;;;15.18;10.88;;;;;;;10.22;76.56;100171.31;5093132;28;20397;-86
2022/04/07 02:54:00;;;;;;;16.60;11.55;;;;;;;10.32;76.47;100165.97;5093998;28;20024;-86
2022/04/07 02:56:27;;;;;;;17.77;12.30;;;;;;;10.29;76.72;100153.66;5075406;28;20012;-87
2022/04/07 02:58:53;;;;;;;14.95;10.35;;;;;;;10.22;76.56;100148.94;5093387;28;20063;-86
2022/04/07 03:01:19;;;;;;;16.60;10.32;;;;;;;10.24;76.65;100147.00;5092559;28;20020;-85
2022/04/07 03:03:44;;;;;;;22.38;11.60;;;;;;;9.92;77.43;100138.16;5093055;28;20039;-85
2022/04/07 03:06:10;;;;;;;18.52;12.57;;;;;;;9.89;77.52;100116.94;5093423;28;20032;-86
2022/04/07 03:08:35;;;;;;;19.98;12.07;;;;;;;10.11;77.95;100143.63;5075397;28;20050;-85
2022/04/07 03:11:02;;;;;;;17.80;11.23;;;;;;;10.14;77.57;100133.50;5093364;28;20032;-85
2022/04/07 03:13:28;;;;;;;17.67;10.65;;;;;;;9.93;77.83;100091.50;5093761;28;20020;-86
2022/04/07 03:15:53;;;;;;;16.45;11.27;;;;;;;10.11;77.50;100106.03;5093665;28;20020;-85
2022/04/07 03:18:20;;;;;;;16.55;10.82;;;;;;;9.71;77.27;100045.03;5093104;28;20024;-85
2022/04/07 03:20:46;;;;;;;12.50;9.90;;;;;;;10.03;77.42;100095.09;5092665;28;20478;-86
2022/04/07 03:23:11;;;;;;;20.60;10.05;;;;;;;10.19;77.01;100114.28;5092629;28;20072;-86
2022/04/07 03:25:37;;;;;;;16.50;10.27;;;;;;;10.08;77.07;100117.03;5095430;28;20028;-84
2022/04/07 03:28:06;;;;;;;14.43;9.07;;;;;;;9.87;77.57;100105.47;5096063;28;20413;-85
2022/04/07 03:30:32;;;;;;;14.02;10.23;;;;;;;9.71;78.27;100096.06;5096243;28;20020;-86
2022/04/07 03:32:57;;;;;;;19.77;10.38;;;;;;;9.63;78.50;100093.16;5095819;28;20035;-77
2022/04/07 03:35:23;;;;;;;22.08;11.05;;;;;;;9.42;79.13;100070.84;5095810;28;20023;-77
2022/04/07 03:37:48;;;;;;;18.52;9.77;;;;;;;9.32;79.58;100048.47;5077832;28;20484;-82
2022/04/07 03:40:14;;;;;;;21.40;11.75;;;;;;;9.50;79.60;100073.75;5097285;28;20016;-82
2022/04/07 03:42:39;;;;;;;29.55;11.90;;;;;;;9.77;79.03;100089.31;5098627;28;20030;-82
2022/04/07 03:45:05;;;;;;;17.10;10.68;;;;;;;9.67;79.16;100091.06;5101310;28;20095;-81
2022/04/07 03:47:31;;;;;;;25.27;11.57;;;;;;;9.66;79.06;100087.53;5101541;28;20081;-81
2022/04/07 03:49:57;;;;;;;22.33;12.40;;;;;;;9.68;79.22;100079.34;5100370;28;20028;-81
2022/04/07 03:52:23;;;;;;;20.27;12.90;;;;;;;9.32;79.32;100027.00;5095954;28;20060;-82
2022/04/07 03:54:49;;;;;;;28.05;12.18;;;;;;;9.71;79.24;100074.56;5096350;28;20020;-82
2022/04/07 03:57:15;;;;;;;22.05;12.85;;;;;;;9.72;79.44;100062.84;5097394;28;20497;-83
2022/04/07 03:59:42;;;;;;;23.25;13.98;;;;;;;9.51;79.72;100055.81;5076935;28;20138;-84
2022/04/07 04:02:09;;;;;;;21.58;13.70;;;;;;;9.46;80.29;100058.88;5094911;28;20027;-83
2022/04/07 04:04:35;;;;;;;20.77;12.93;;;;;;;9.49;80.59;100045.19;5095186;28;20452;-83
2022/04/07 04:07:01;;;;;;;20.67;12.57;;;;;;;8.99;81.27;99982.44;5076790;28;20094;-83
2022/04/07 04:09:26;;;;;;;41.55;13.30;;;;;;;9.17;81.81;100005.00;5095686;28;20066;-84
2022/04/07 04:11:52;;;;;;;25.70;13.02;;;;;;;9.27;81.84;100022.03;5099714;28;20020;-82
2022/04/07 04:14:18;;;;;;;23.33;11.73;;;;;;;9.05;82.23;99991.81;5079455;28;20401;-82
2022/04/07 04:16:44;;;;;;;35.63;12.23;;;;;;;9.23;82.58;100023.25;5094558;28;20020;-83
2022/04/07 04:19:10;;;;;;;29.88;12.50;;;;;;;9.23;82.77;100007.16;5095157;28;20046;-79
2022/04/07 04:21:36;;;;;;;19.65;11.98;;;;;;;9.31;82.69;99982.38;5095113;28;20032;-86
2022/04/07 04:24:02;;;;;;;38.70;12.07;;;;;;;9.29;82.29;99976.28;5094854;28;20055;-82
2022/04/07 04:26:27;;;;;;;21.30;10.93;;;;;;;9.29;82.34;99987.03;5094925;28;20081;-84
2022/04/07 04:28:53;;;;;;;18.75;11.13;;;;;;;9.38;82.49;99982.69;5095102;28;20027;-83
2022/04/07 04:31:20;;;;;;;17.45;9.80;;;;;;;9.36;82.48;99980.13;5096350;28;20119;-84
2022/04/07 04:33:45;;;;;;;21.15;10.40;;;;;;;9.25;82.81;99972.16;5096926;28;20091;-82
2022/04/07 04:36:11;;;;;;;22.02;9.88;;;;;;;9.23;83.02;99974.16;5094950;28;20103;-82
2022/04/07 04:38:36;;;;;;;17.45;9.93;;;;;;;9.21;83.20;99973.41;5095212;28;20027;-82
2022/04/07 04:41:02;;;;;;;24.35;10.05;;;;;;;9.27;83.58;99964.81;5095063;28;20020;-83
2022/04/07 04:43:27;;;;;;;18.88;9.75;;;;;;;9.11;83.70;99943.00;5094977;28;20082;-89
2022/04/07 04:45:53;;;;;;;14.65;11.23;;;;;;;9.27;83.40;99964.81;5094526;28;20065;-79
2022/04/07 04:48:18;;;;;;;24.73;9.93;;;;;;;9.30;83.50;99959.19;5094266;28;20052;-80
2022/04/07 04:50:43;;;;;;;19.77;10.25;;;;;;;9.37;83.22;99971.09;5094356;28;20023;-82
2022/04/07 04:53:09;;;;;;;22.10;9.52;;;;;;;9.36;83.09;99974.75;5076485;28;20119;-84
2022/04/07 04:55:34;;;;;;;23.85;10.30;;;;;;;9.40;83.21;99980.72;5094411;28;20091;-79
2022/04/07 04:58:00;;;;;;;23.05;12.15;;;;;;;9.48;83.20;99973.69;5094387;28;20020;-82
2022/04/07 05:00:26;;;;;;;24.70;10.70;;;;;;;9.42;82.98;99966.19;5094858;28;20442;-87
2022/04/07 05:02:52;;;;;;;30.40;10.40;;;;;;;9.43;83.08;99950.94;5077396;28;20027;-89
2022/04/07 05:05:17;;;;;;;14.90;10.52;;;;;;;9.33;83.82;99944.69;5096128;28;20024;-90
2022/04/07 05:07:43;;;;;;;31.88;13.68;;;;;;;9.27;84.56;99919.22;5106822;28;20016;-87
2022/04/07 05:10:08;;;;;;;28.55;12.15;;;;;;;9.50;84.03;99928.81;5102061;28;20502;-80
2022/04/07 05:12:34;;;;;;;42.17;14.65;;;;;;;9.66;84.01;99923.75;5101950;28;20077;-78
2022/04/07 05:14:59;;;;;;;23.38;10.80;;;;;;;9.82;83.70;99929.47;5097165;28;20091;-79
2022/04/07 05:17:25;;;;;;;27.33;11.80;;;;;;;9.92;83.40;99929.50;5093734;28;20388;-78
2022/04/07 05:19:50;;;;;;;23.70;12.82;;;;;;;9.98;83.63;99934.31;5093687;28;20424;-82
2022/04/07 05:22:16;;;;;;;26.05;13.68;;;;;;;9.86;84.10;99935.41;5093253;28;20028;-79
2022/04/07 05:24:41;;;;;;;22.60;11.98;;;;;;;9.76;84.67;99926.47;5092989;28;20022;-81
2022/04/07 05:27:06;;;;;;;25.20;13.02;;;;;;;9.68;85.43;99940.59;5093262;28;20024;-79
2022/04/07 05:29:32;;;;;;;32.38;13.90;;;;;;;9.57;85.68;99939.84;5093255;28;20020;-79
2022/04/07 05:31:57;;;;;;;29.08;14.15;;;;;;;9.53;86.36;99950.00;5092360;28;20034;-77
2022/04/07 05:34:23;;;;;;;29.55;14.82;;;;;;;9.65;87.10;99954.28;5093046;28;20024;-79
2022/04/07 05:36:48;;;;;;;30.65;14.63;;;;;;;9.52;87.30;99959.03;5092661;28;20363;-78
2022/04/07 05:39:14;;;;;;;42.53;14.45;;;;;;;9.62;87.34;99949.19;5092738;28;20020;-77
2022/04/07 05:41:39;;;;;;;32.85;14.75;;;;;;;9.64;86.73;99941.84;5092690;28;20019;-77
2022/04/07 05:44:05;;;;;;;24.67;14.25;;;;;;;9.50;86.27;99912.69;5092132;28;20020;-79
2022/04/07 05:46:31;;;;;;;20.80;13.63;;;;;;;9.60;85.96;99936.91;5092085;28;20153;-80
2022/04/07 05:48:56;;;;;;;48.60;19.00;;;;;;;9.78;85.76;99964.81;5092380;28;20485;-79
2022/04/07 05:51:23;;;;;;;40.05;16.70;;;;;;;9.73;85.83;99957.13;5092160;28;20016;-78
2022/04/07 05:53:48;;;;;;;29.98;15.93;;;;;;;9.48;86.58;99917.31;5092421;28;20024;-77
2022/04/07 05:56:14;;;;;;;30.13;14.02;;;;;;;9.61;86.64;99954.69;5092013;28;20112;-78
2022/04/07 05:58:39;;;;;;;28.83;15.02;;;;;;;9.49;86.49;99951.25;5092279;28;20024;-79
2022/04/07 06:01:05;;;;;;;28.55;14.27;;;;;;;9.55;86.76;99974.88;5091822;28;20062;-77
2022/04/07 06:03:31;;;;;;;28.48;14.40;;;;;;;9.37;86.85;99954.16;5091768;28;20032;-79
2022/04/07 06:05:58;;;;;;;29.52;15.18;;;;;;;9.56;87.16;99994.50;5091746;28;20096;-79
2022/04/07 06:08:23;;;;;;;47.78;12.80;;;;;;;9.57;86.78;99989.00;5091832;28;20038;-77
2022/04/07 06:10:50;;;;;;;23.75;10.60;;;;;;;9.58;85.93;99990.72;5091912;28;20052;-77
2022/04/07 06:13:15;;;;;;;35.45;12.15;;;;;;;9.45;85.93;99954.34;5091578;28;20062;-78
2022/04/07 06:15:42;;;;;;;23.98;11.68;;;;;;;9.75;85.98;99981.19;5092209;28;20016;-80
2022/04/07 06:18:08;;;;;;;19.52;10.75;;;;;;;9.85;85.46;99974.84;5091871;28;20472;-79
2022/04/07 06:20:33;;;;;;;33.00;9.95;;;;;;;9.92;85.14;99960.88;5091616;28;20059;-78
2022/04/07 06:23:00;;;;;;;28.85;11.07;;;;;;;9.92;84.79;99931.31;5091809;28;20020;-78
2022/04/07 06:25:26;;;;;;;23.48;11.30;;;;;;;9.77;84.13;99920.97;5091970;28;20121;-78
2022/04/07 06:27:52;;;;;;;28.67;9.98;;;;;;;10.01;83.74;99933.19;5092003;28;20058;-78
2022/04/07 06:30:19;;;;;;;22.38;9.80;;;;;;;10.01;82.80;99911.69;5091761;28;20047;-79
2022/04/07 06:32:46;;;;;;;22.10;9.80;;;;;;;10.14;82.54;99923.06;5077003;28;20549;-78
2022/04/07 06:35:13;;;;;;;33.05;10.88;;;;;;;10.21;82.27;99911.59;5100285;28;20070;-78
2022/04/07 06:37:49;;;;;;;31.63;10.25;;;;;;;10.12;82.81;99876.66;5099982;28;20588;-78
2022/04/07 06:40:18;;;;;;;23.30;10.85;;;;;;;10.13;82.35;99878.34;5097544;28;20024;-80
2022/04/07 06:42:44;;;;;;;19.40;10.45;;;;;;;10.12;81.61;99892.78;5093437;28;20027;-79
2022/04/07 06:45:09;;;;;;;29.10;10.13;;;;;;;9.98;81.27;99885.13;5091607;28;20024;-77
2022/04/07 06:47:38;;;;;;;34.50;10.88;;;;;;;10.02;80.54;99892.78;5091588;28;20028;-78
2022/04/07 06:50:06;;;;;;;27.55;9.80;;;;;;;10.22;80.52;99893.66;5091473;28;20095;-78
2022/04/07 06:52:31;;;;;;;19.65;9.45;;;;;;;10.03;79.43;99872.94;5091556;28;20027;-78
2022/04/07 06:54:56;;;;;;;29.67;9.73;;;;;;;10.01;80.33;99869.56;5091015;28;20377;-78
2022/04/07 06:57:22;;;;;;;28.63;9.43;;;;;;;10.11;79.40;99885.69;5091054;28;20427;-78
2022/04/07 06:59:47;;;;;;;21.55;9.40;;;;;;;10.14;78.82;99901.56;5076922;28;20089;-78
2022/04/07 07:02:12;;;;;;;20.75;8.23;;;;;;;10.07;78.70;99905.75;5095620;28;20032;-78
2022/04/07 07:04:38;;;;;;;20.70;8.02;;;;;;;10.01;79.65;99919.75;5095056;28;20028;-79
2022/04/07 07:07:03;;;;;;;22.38;10.18;;;;;;;9.72;80.89;99893.66;5095500;28;20016;-79
2022/04/07 07:09:29;;;;;;;24.13;11.75;;;;;;;9.86;81.79;99916.63;5094869;28;20048;-77
2022/04/07 07:11:54;;;;;;;45.67;12.00;;;;;;;9.68;82.10;99926.31;5077633;28;20035;-78
2022/04/07 07:14:20;;;;;;;28.85;11.98;;;;;;;9.70;81.72;99925.19;5095460;28;20032;-79
2022/04/07 07:16:45;;;;;;;27.33;12.65;;;;;;;9.59;80.56;99937.88;5094844;28;20031;-77
2022/04/07 07:19:10;;;;;;;23.30;12.40;;;;;;;9.55;79.76;99910.44;5094885;28;20036;-78
2022/04/07 07:21:36;;;;;;;37.05;13.98;;;;;;;9.65;80.09;99914.03;5095149;28;20024;-80
2022/04/07 07:24:02;;;;;;;31.98;14.57;;;;;;;9.58;79.92;99898.56;5095138;28;20048;-78
2022/04/07 07:26:28;;;;;;;33.75;14.95;;;;;;;9.71;80.75;99926.91;5094959;28;20027;-79
2022/04/07 07:28:53;;;;;;;46.28;16.02;;;;;;;9.70;80.64;99935.94;5094827;28;20028;-78
2022/04/07 07:31:19;;;;;;;33.03;15.18;;;;;;;9.66;80.45;99913.00;5094795;28;20027;-79
2022/04/07 07:33:44;;;;;;;38.50;14.82;;;;;;;9.63;80.72;99913.28;5094927;28;20035;-80
2022/04/07 07:36:10;;;;;;;35.83;15.20;;;;;;;9.64;80.67;99893.53;5094612;28;20445;-79
2022/04/07 07:38:35;;;;;;;48.47;16.42;;;;;;;9.68;80.89;99886.03;5094739;28;20035;-79
2022/04/07 07:41:01;;;;;;;33.08;14.38;;;;;;;9.51;81.29;99843.75;5094591;28;20028;-78
2022/04/07 07:43:26;;;;;;;30.05;14.48;;;;;;;9.74;81.49;99861.34;5095608;28;20024;-79
2022/04/07 07:45:52;;;;;;;42.00;15.07;;;;;;;9.64;81.45;99828.22;5094984;28;20028;-79
2022/04/07 07:48:20;;;;;;;29.85;14.57;;;;;;;9.91;80.90;99857.13;5094650;28;20182;-88
2022/04/07 07:50:46;;;;;;;30.30;13.07;;;;;;;9.75;80.35;99842.38;5095527;28;20056;-80
2022/04/07 07:53:14;;;;;;;35.33;15.25;;;;;;;9.88;80.18;99854.72;5095138;28;20031;-78
2022/04/07 07:55:39;;;;;;;32.10;14.75;;;;;;;9.92;80.08;99838.19;5077954;28;20024;-80
2022/04/07 07:58:05;;;;;;;26.35;14.07;;;;;;;9.98;80.08;99831.38;5096331;28;20450;-83
2022/04/07 08:00:30;;;;;;;48.20;14.75;;;;;;;9.79;80.11;99819.63;5104549;28;20391;-80
2022/04/07 08:02:56;;;;;;;38.13;17.50;;;;;;;9.84;79.92;99814.72;5106079;28;20379;-80
2022/04/07 08:05:21;;;;;;;34.17;15.95;;;;;;;9.82;78.64;99814.00;5103573;28;20032;-79
2022/04/07 08:07:47;;;;;;;40.90;16.20;;;;;;;9.80;78.76;99805.25;5090275;28;20458;-79
2022/04/07 08:10:12;;;;;;;42.10;18.38;;;;;;;9.64;78.71;99758.44;5073938;28;20059;-78
2022/04/07 08:12:39;;;;;;;41.85;17.55;;;;;;;9.72;79.14;99770.16;5074933;28;20043;-86
2022/04/07 08:15:06;;;;;;;55.47;19.30;;;;;;;9.92;78.91;99780.91;5075157;28;20040;-79
2022/04/07 08:17:32;;;;;;;37.95;16.55;;;;;;;10.07;78.24;99790.25;5055545;28;20020;-79
2022/04/07 08:19:57;;;;;;;46.05;18.95;;;;;;;9.93;77.57;99747.72;5074085;28;20033;-84
2022/04/07 08:22:23;;;;;;;41.08;18.60;;;;;;;10.06;78.20;99783.19;5074159;28;20101;-78
2022/04/07 08:24:48;;;;;;;35.70;15.60;;;;;;;9.70;77.52;99726.50;5074186;28;20448;-86
2022/04/07 08:27:14;;;;;;;34.13;14.90;;;;;;;9.54;78.24;99683.25;5075636;28;20025;-86
2022/04/07 08:29:40;;;;;;;29.98;15.50;;;;;;;9.80;77.86;99705.88;5075031;28;20047;-85
2022/04/07 08:32:06;;;;;;;42.22;16.50;;;;;;;9.65;77.86;99680.47;5056942;28;20036;-84
2022/04/07 08:34:31;;;;;;;32.03;13.77;;;;;;;9.74;78.13;99692.19;5056701;28;20032;-81
2022/04/07 08:36:57;;;;;;;35.92;16.77;;;;;;;9.93;78.23;99710.97;5075161;28;20025;-82
2022/04/07 08:39:23;;;;;;;28.92;14.15;;;;;;;10.07;77.45;99728.47;5074998;28;20051;-86
2022/04/07 08:41:49;;;;;;;33.00;12.55;;;;;;;10.01;77.33;99704.84;5074943;28;20419;-84
2022/04/07 08:44:17;;;;;;;39.63;13.27;;;;;;;9.93;76.65;99702.91;5075543;28;20024;-85
2022/04/07 08:46:52;;;;;;;37.50;12.40;;;;;;;9.95;76.90;99687.50;5056539;28;20029;-82
2022/04/07 08:49:21;;;;;;;32.70;12.30;;;;;;;10.15;76.67;99691.84;5074898;28;20174;-81
2022/04/07 08:51:49;;;;;;;36.72;12.52;;;;;;;10.21;76.21;99693.13;5073528;28;20533;-79
2022/04/07 08:54:15;;;;;;;39.92;11.82;;;;;;;10.22;76.21;99681.38;5073545;28;20109;-82
2022/04/07 08:56:40;;;;;;;38.00;13.35;;;;;;;10.40;75.81;99644.69;5074106;28;20503;-81
2022/04/07 08:59:06;;;;;;;19.90;11.20;;;;;;;10.59;74.84;99654.50;5078861;28;20028;-85
2022/04/07 09:01:31;;;;;;;42.60;12.48;;;;;;;10.62;74.16;99655.06;5056637;28;20035;-81
2022/04/07 09:03:56;;;;;;;35.30;12.52;;;;;;;10.68;73.41;99638.31;5074703;28;20035;-81
2022/04/07 09:06:23;;;;;;;38.65;11.60;;;;;;;10.75;73.21;99655.56;5074640;28;20025;-82
2022/04/07 09:08:49;;;;;;;28.75;10.15;;;;;;;10.68;73.03;99649.09;5073233;28;20084;-80
2022/04/07 09:11:17;;;;;;;15.73;10.07;;;;;;;10.45;73.84;99636.19;5073161;28;20059;-84
2022/04/07 09:13:49;;;;;;;27.23;11.73;;;;;;;10.50;74.32;99628.50;5072812;28;20032;-78
2022/04/07 09:16:15;;;;;;;;;;;;;;;10.44;74.44;99629.97;5073205;28;20023;-77
2022/04/07 09:18:47;;;;;;;30.10;13.65;;;;;;;10.34;75.54;99621.94;5073063;28;19912;-78
2022/04/07 09:21:27;;;;;;;44.47;13.85;;;;;;;10.45;75.52;99603.94;5071315;28;20024;-79
2022/04/07 09:23:56;;;;;;;35.75;13.80;;;;;;;10.42;75.35;99604.22;5072150;28;20036;-78
2022/04/07 09:26:22;;;;;;;20.38;11.40;;;;;;;10.41;75.13;99598.00;5056194;28;20029;-79
2022/04/07 09:28:48;;;;;;;28.17;12.93;;;;;;;10.27;75.32;99574.31;5073148;28;20035;-78
2022/04/07 09:31:15;;;;;;;35.80;15.18;;;;;;;10.44;74.87;99581.56;5075313;28;20047;-79
2022/04/07 09:33:41;;;;;;;32.00;10.93;;;;;;;10.49;73.78;99603.47;5062994;28;20466;-79
2022/04/07 09:36:19;;;;;;;31.40;12.52;;;;;;;10.40;74.30;99606.22;5061768;28;20082;-80
2022/04/07 09:38:49;;;;;;;28.85;11.02;;;;;;;10.39;74.21;99608.06;5079621;28;20032;-80
2022/04/07 09:41:14;;;;;;;31.83;11.98;;;;;;;10.36;74.83;99601.16;5072198;28;20032;-80
2022/04/07 09:43:48;;;;;;;26.80;13.73;;;;;;;10.52;75.38;99581.66;5071731;28;20028;-80
2022/04/07 09:46:21;;;;;;;26.35;14.15;;;;;;;10.67;74.51;99571.28;5071876;28;20078;-79
2022/04/07 09:49:07;;;;;;;32.65;13.55;;;;;;;10.56;74.88;99558.88;5071863;28;20113;-79
2022/04/07 09:51:46;;;;;;;28.52;13.40;;;;;;;10.48;75.03;99542.66;5071542;28;20028;-80
2022/04/07 09:54:13;;;;;;;31.42;13.15;;;;;;;10.48;75.45;99556.09;5071884;28;20028;-79
2022/04/07 09:56:39;;;;;;;29.90;14.05;;;;;;;10.40;75.53;99542.53;5079350;28;20040;-81
2022/04/07 09:59:08;;;;;;;35.92;14.13;;;;;;;10.25;76.23;99554.78;5075384;28;20043;-79
2022/04/07 10:01:35;;;;;;;39.00;14.05;;;;;;;10.16;76.92;99536.88;5071963;28;20040;-79
2022/04/07 10:04:04;;;;;;;31.42;12.65;;;;;;;10.16;76.94;99529.66;5072314;28;20066;-80
2022/04/07 10:06:33;;;;;;;32.28;15.52;;;;;;;9.99;77.59;99518.84;5071513;28;20024;-78
2022/04/07 10:09:06;;;;;;;25.58;12.77;;;;;;;9.90;78.67;99512.50;5071293;28;20414;-79
2022/04/07 10:11:32;;;;;;;29.55;12.80;;;;;;;9.92;79.24;99496.25;5071908;28;20056;-79
2022/04/07 10:13:59;;;;;;;28.65;12.70;;;;;;;9.95;79.99;99486.06;5054040;28;20177;-79
2022/04/07 10:16:27;;;;;;;31.25;14.20;;;;;;;9.94;80.58;99462.88;5071783;28;20479;-80
2022/04/07 10:18:55;;;;;;;31.35;11.63;;;;;;;10.05;80.22;99472.56;5071902;28;20039;-79
2022/04/07 10:21:46;;;;;;;25.70;11.93;;;;;;;9.94;80.15;99454.00;5053907;28;20494;-79
2022/04/07 10:24:28;;;;;;;29.95;12.55;;;;;;;9.95;80.31;99455.66;5071838;28;20032;-79
2022/04/07 10:26:55;;;;;;;23.25;12.38;;;;;;;10.02;80.45;99441.50;5071829;28;20347;-79
2022/04/07 10:29:22;;;;;;;22.90;13.07;;;;;;;10.00;81.40;99431.91;5071959;28;20117;-79
2022/04/07 10:32:12;;;;;;;21.52;13.68;;;;;;;10.01;81.76;99438.94;5071591;28;20032;-80
2022/04/07 10:34:59;;;;;;;31.77;16.05;;;;;;;10.07;82.03;99409.66;5057019;28;20475;-80
2022/04/07 10:37:45;;;;;;;37.50;16.63;;;;;;;10.27;82.10;99407.72;5075745;28;20111;-80
2022/04/07 10:40:50;;;;;;;27.52;14.77;;;;;;;10.18;80.85;99397.88;5075529;28;20028;-79
2022/04/07 10:43:25;;;;;;;32.58;18.55;;;;;;;10.15;81.23;99380.19;5075366;28;20036;-79
2022/04/07 10:46:11;;;;;;;40.25;19.00;;;;;;;10.05;81.28;99402.75;5075595;28;20039;-79
2022/04/07 10:48:43;;;;;;;42.72;20.55;;;;;;;10.07;81.46;99403.41;5075478;28;20024;-78
2022/04/07 10:51:10;;;;;;;33.10;20.02;;;;;;;10.20;81.97;99425.44;5076039;28;20052;-80
2022/04/07 10:53:40;;;;;;;40.13;19.48;;;;;;;10.20;82.19;99438.88;5075505;28;20386;-79
2022/04/07 10:56:11;;;;;;;40.28;17.25;;;;;;;10.29;81.88;99421.84;5058009;28;20025;-78
2022/04/07 10:58:40;;;;;;;33.15;18.20;;;;;;;10.48;81.11;99442.34;5076068;28;20071;-80
2022/04/07 11:01:06;;;;;;;29.65;15.68;;;;;;;10.38;80.49;99437.03;5078690;28;20059;-78
2022/04/07 11:03:33;;;;;;;30.48;17.25;;;;;;;10.41;80.74;99404.47;5084630;28;20029;-79
2022/04/07 11:06:08;;;;;;;26.90;17.25;;;;;;;10.49;80.33;99423.38;5086989;28;20024;-77
2022/04/07 11:08:34;;;;;;;33.53;16.52;;;;;;;10.67;79.22;99431.44;5083095;28;20066;-84
2022/04/07 11:11:00;;;;;;;28.83;15.10;;;;;;;10.64;78.38;99419.13;5076551;28;20053;-84
2022/04/07 11:13:50;;;;;;;36.72;15.80;;;;;;;10.70;78.38;99412.31;5075937;28;20163;-86
2022/04/07 11:16:36;;;;;;;38.65;16.73;;;;;;;10.56;78.15;99421.75;5076314;28;20537;-83
2022/04/07 11:19:32;;;;;;;47.05;18.77;;;;;;;10.47;78.39;99420.00;5077138;28;20036;-89
2022/04/07 11:22:07;;;;;;;32.80;18.75;;;;;;;10.51;78.49;99396.34;5081288;28;20383;-86